createdAt,value
2022-10-21T00:04:04.884Z,100492.97
2022-10-21T00:06:30.422Z,100496.56
2022-10-21T00:08:56.021Z,100498.22
2022-10-21T00:11:21.644Z,100502.91
2022-10-21T00:13:47.187Z,100481.91
2022-10-21T00:16:14.079Z,100486.63
2022-10-21T00:18:40.453Z,100485.47
2022-10-21T00:21:06.739Z,100488.25
2022-10-21T00:23:32.285Z,100487.44
2022-10-21T00:25:57.826Z,100490.22
2022-10-21T00:28:23.379Z,100492.97
2022-10-21T00:30:48.943Z,100479.13
2022-10-21T00:33:14.497Z,100484.66
2022-10-21T00:35:40.070Z,100484.66
2022-10-21T00:38:05.626Z,100478.31
2022-10-21T00:40:31.323Z,100475.53
2022-10-21T00:42:56.864Z,100483.84
2022-10-21T00:45:23.536Z,100487.44
2022-10-21T00:47:51.129Z,100484.66
2022-10-21T00:50:18.714Z,100481.09
2022-10-21T00:52:44.252Z,100479.44
2022-10-21T00:55:09.812Z,100470.00
2022-10-21T00:57:35.520Z,100458.13
2022-10-21T01:00:01.359Z,100462.84
2022-10-21T01:02:27.224Z,100462.84
2022-10-21T01:04:53.277Z,100464.78
2022-10-21T01:07:18.824Z,100465.59
2022-10-21T01:09:44.375Z,100458.44
2022-10-21T01:12:12.923Z,100450.94
2022-10-21T01:14:42.733Z,100444.28
2022-10-21T01:17:26.332Z,100443.47
2022-10-21T01:20:09.314Z,100437.09
2022-10-21T01:22:48.856Z,100437.94
2022-10-21T01:25:34.272Z,100437.94
2022-10-21T01:28:19.696Z,100435.16
2022-10-21T01:31:00.619Z,100431.56
2022-10-21T01:33:46.047Z,100426.03
2022-10-21T01:36:22.534Z,100420.50
2022-10-21T01:39:07.972Z,100419.69
2022-10-21T01:41:36.519Z,100423.25
2022-10-21T01:44:05.555Z,100416.06
2022-10-21T01:46:37.864Z,100419.69
2022-10-21T01:49:05.523Z,100417.72
2022-10-21T01:51:31.062Z,100416.06
2022-10-21T01:53:58.302Z,100413.28
2022-10-21T01:56:23.847Z,100410.53
2022-10-21T01:58:49.395Z,100411.38
2022-10-21T02:01:15.200Z,100404.19
2022-10-21T02:03:41.394Z,100399.47
2022-10-21T02:06:06.941Z,100399.47
2022-10-21T02:08:32.591Z,100396.69
2022-10-21T02:10:58.782Z,100393.09
2022-10-21T02:13:25.415Z,100385.63
2022-10-21T02:15:52.269Z,100378.44
2022-10-21T02:18:20.346Z,100376.50
2022-10-21T02:20:45.895Z,100380.09
2022-10-21T02:23:12.390Z,100375.69
2022-10-21T02:25:38.047Z,100379.25
2022-10-21T02:28:03.673Z,100380.41
2022-10-21T02:30:31.702Z,100373.72
2022-10-21T02:33:01.479Z,100369.31
2022-10-21T02:35:44.946Z,100375.69
2022-10-21T02:38:14.114Z,100370.16
2022-10-21T02:40:41.338Z,100372.91
2022-10-21T02:43:11.493Z,100367.38
2022-10-21T02:45:37.400Z,100369.31
2022-10-21T02:48:03.321Z,100368.50
2022-10-21T02:50:28.864Z,100373.22
2022-10-21T02:52:54.427Z,100367.38
2022-10-21T02:55:19.971Z,100369.31
2022-10-21T02:57:45.520Z,100370.47
2022-10-21T03:00:11.402Z,100369.31
2022-10-21T03:02:36.947Z,100364.94
2022-10-21T03:05:02.594Z,100361.03
2022-10-21T03:07:28.142Z,100369.31
2022-10-21T03:09:53.689Z,100371.28
2022-10-21T03:12:19.226Z,100371.28
2022-10-21T03:14:44.775Z,100374.03
2022-10-21T03:17:10.324Z,100368.50
2022-10-21T03:19:35.883Z,100370.47
2022-10-21T03:22:01.419Z,100371.28
2022-10-21T03:24:28.837Z,100375.19
2022-10-21T03:26:54.811Z,100368.50
2022-10-21T03:29:20.364Z,100376.00
2022-10-21T03:31:45.914Z,100367.69
2022-10-21T03:34:11.468Z,100366.88
2022-10-21T03:36:37.018Z,100361.34
2022-10-21T03:39:02.574Z,100367.69
2022-10-21T03:41:28.119Z,100360.53
2022-10-21T03:43:53.674Z,100364.09
2022-10-21T03:46:19.228Z,100358.56
2022-10-21T03:48:44.796Z,100367.69
2022-10-21T03:51:10.344Z,100366.88
2022-10-21T03:53:43.325Z,100365.75
2022-10-21T03:56:09.230Z,100363.28
2022-10-21T03:58:34.971Z,100361.34
2022-10-21T04:01:00.565Z,100366.06
2022-10-21T04:03:26.118Z,100361.34
2022-10-21T04:05:51.684Z,100357.75
2022-10-21T04:08:17.237Z,100356.09
2022-10-21T04:10:43.578Z,100360.53
2022-10-21T04:13:09.157Z,100362.47
2022-10-21T04:15:34.701Z,100360.53
2022-10-21T04:18:00.252Z,100360.53
2022-10-21T04:20:25.796Z,100366.06
2022-10-21T04:22:51.347Z,100370.78
2022-10-21T04:25:16.898Z,100368.00
2022-10-21T04:27:42.451Z,100369.66
2022-10-21T04:30:08.215Z,100360.53
2022-10-21T04:32:33.774Z,100362.47
2022-10-21T04:34:59.330Z,100359.72
2022-10-21T04:37:24.883Z,100363.28
2022-10-21T04:39:50.434Z,100370.78
2022-10-21T04:42:16.024Z,100356.94
2022-10-21T04:44:41.603Z,100363.56
2022-10-21T04:47:07.144Z,100355.00
2022-10-21T04:49:32.695Z,100353.31
2022-10-21T04:51:58.232Z,100359.72
2022-10-21T04:54:23.777Z,100362.47
2022-10-21T04:56:49.349Z,100352.50
2022-10-21T04:59:14.898Z,100346.97
2022-10-21T05:01:40.435Z,100344.19
2022-10-21T05:04:05.977Z,100337.84
2022-10-21T05:06:31.519Z,100340.63
2022-10-21T05:08:57.152Z,100332.31
2022-10-21T05:11:22.741Z,100332.63
2022-10-21T05:13:48.294Z,100329.03
2022-10-21T05:16:13.833Z,100326.78
2022-10-21T05:18:39.391Z,100319.28
2022-10-21T05:21:04.935Z,100319.28
2022-10-21T05:23:30.503Z,100326.78
2022-10-21T05:25:56.042Z,100324.00
2022-10-21T05:28:21.594Z,100324.00
2022-10-21T05:30:47.234Z,100316.84
2022-10-21T05:33:12.793Z,100313.75
2022-10-21T05:35:38.336Z,100308.53
2022-10-21T05:38:04.038Z,100304.63
2022-10-21T05:40:30.112Z,100299.41
2022-10-21T05:42:55.667Z,100297.16
2022-10-21T05:45:21.227Z,100293.56
2022-10-21T05:47:46.773Z,100291.13
2022-10-21T05:50:12.558Z,100282.50
2022-10-21T05:52:38.598Z,100286.06
2022-10-21T05:55:04.689Z,100286.41
2022-10-21T05:57:31.790Z,100283.63
2022-10-21T05:59:57.347Z,100283.63
2022-10-21T06:02:22.927Z,100278.09
2022-10-21T06:04:48.491Z,100286.41
2022-10-21T06:07:14.039Z,100285.59
2022-10-21T06:09:40.094Z,100282.81
2022-10-21T06:12:06.219Z,100286.41
2022-10-21T06:14:31.766Z,100284.75
2022-10-21T06:16:57.322Z,100285.59
2022-10-21T06:19:22.877Z,100287.53
2022-10-21T06:21:48.460Z,100290.31
2022-10-21T06:24:14.203Z,100277.28
2022-10-21T06:26:39.804Z,100274.78
2022-10-21T06:29:05.395Z,100287.53
2022-10-21T06:31:30.935Z,100291.94
2022-10-21T06:33:56.480Z,100286.72
2022-10-21T06:36:22.021Z,100284.75
2022-10-21T06:38:47.594Z,100293.06
2022-10-21T06:41:13.712Z,100293.88
2022-10-21T06:43:39.692Z,100288.63
2022-10-21T06:46:06.369Z,100289.47
2022-10-21T06:48:31.921Z,100290.59
2022-10-21T06:50:58.893Z,100292.25
2022-10-21T06:53:24.564Z,100285.88
2022-10-21T06:55:50.128Z,100295.03
2022-10-21T06:58:15.683Z,100291.41
2022-10-21T07:00:41.238Z,100305.25
2022-10-21T07:03:06.802Z,100308.00
2022-10-21T07:05:32.345Z,100310.50
2022-10-21T07:07:57.892Z,100317.16
2022-10-21T07:10:23.438Z,100325.47
2022-10-21T07:12:48.999Z,100326.28
2022-10-21T07:15:14.553Z,100343.16
2022-10-21T07:17:40.510Z,100366.13
2022-10-21T07:20:06.425Z,100363.38
2022-10-21T07:22:31.993Z,100363.38
2022-10-21T07:24:57.569Z,100370.84
2022-10-21T07:27:23.189Z,100373.31
2022-10-21T07:29:48.738Z,100374.44
2022-10-21T07:32:14.290Z,100383.59
2022-10-21T07:34:39.833Z,100393.81
2022-10-21T07:37:05.645Z,100395.47
2022-10-21T07:39:31.767Z,100382.44
2022-10-21T07:41:57.505Z,100389.13
2022-10-21T07:44:23.586Z,100385.22
2022-10-21T07:46:49.236Z,100383.59
2022-10-21T07:49:15.633Z,100393.00
2022-10-21T07:51:41.233Z,100387.16
2022-10-21T07:54:06.789Z,100391.88
2022-10-21T07:56:33.696Z,100388.28
2022-10-21T07:59:00.691Z,100395.75
2022-10-21T08:01:26.384Z,100385.50
2022-10-21T08:03:53.073Z,100381.63
2022-10-21T08:06:18.646Z,100380.81
2022-10-21T08:08:45.173Z,100388.28
2022-10-21T08:11:10.756Z,100379.97
2022-10-21T08:13:37.328Z,100391.03
2022-10-21T08:16:03.989Z,100388.59
2022-10-21T08:18:29.571Z,100393.00
2022-10-21T08:20:55.121Z,100391.88
2022-10-21T08:23:21.162Z,100392.16
2022-10-21T08:25:47.352Z,100400.47
2022-10-21T08:28:12.988Z,100409.09
2022-10-21T08:30:38.558Z,100395.47
2022-10-21T08:33:04.199Z,100395.69
2022-10-21T08:35:29.963Z,100392.91
2022-10-21T08:37:55.600Z,100389.94
2022-10-21T08:40:21.195Z,100385.44
2022-10-21T08:42:46.766Z,100390.97
2022-10-21T08:45:22.172Z,100389.31
2022-10-21T08:47:49.183Z,100393.41
2022-10-21T08:50:15.576Z,100390.66
2022-10-21T08:52:56.177Z,100388.69
2022-10-21T08:55:23.345Z,100390.44
2022-10-21T08:57:49.261Z,100392.59
2022-10-21T09:00:16.499Z,100395.06
2022-10-21T09:03:00.168Z,100394.25
2022-10-21T09:05:32.397Z,100401.41
2022-10-21T09:08:00.402Z,100399.47
2022-10-21T09:10:45.917Z,100400.59
2022-10-21T09:13:12.441Z,100399.16
2022-10-21T09:15:57.874Z,100405.00
2022-10-21T09:18:34.344Z,100409.44
2022-10-21T09:21:05.903Z,100413.25
2022-10-21T09:23:42.342Z,100421.78
2022-10-21T09:26:13.479Z,100432.56
2022-10-21T09:28:39.031Z,100423.88
2022-10-21T09:31:08.857Z,100419.97
2022-10-21T09:33:34.416Z,100416.06
2022-10-21T09:36:02.308Z,100414.66
2022-10-21T09:38:30.394Z,100422.34
2022-10-21T09:41:02.183Z,100440.59
2022-10-21T09:43:27.807Z,100446.94
2022-10-21T09:45:53.349Z,100441.72
2022-10-21T09:48:21.629Z,100425.94
2022-10-21T09:50:55.788Z,100435.06
2022-10-21T09:53:25.542Z,100442.22
2022-10-21T09:55:55.335Z,100450.25
2022-10-21T09:58:25.048Z,100450.25
2022-10-21T10:00:50.600Z,100453.84
2022-10-21T10:03:36.055Z,100449.41
2022-10-21T10:06:01.877Z,100456.59
2022-10-21T10:08:43.656Z,100442.75
2022-10-21T10:13:44.859Z,100466.84
2022-10-21T10:16:13.839Z,100467.38
2022-10-21T10:18:39.731Z,100470.44
2022-10-21T10:21:06.148Z,100466.53
2022-10-21T10:23:40.525Z,100460.19
2022-10-21T10:26:06.067Z,100462.97
2022-10-21T10:28:31.716Z,100472.09
2022-10-21T10:30:57.309Z,100477.31
2022-10-21T10:33:24.143Z,100484.50
2022-10-21T10:35:51.110Z,100478.44
2022-10-21T10:38:18.425Z,100469.81
2022-10-21T10:40:43.981Z,100475.34
2022-10-21T10:43:14.391Z,100477.84
2022-10-21T10:45:46.178Z,100477.03
2022-10-21T10:48:15.605Z,100475.88
2022-10-21T10:50:42.169Z,100475.88
2022-10-21T10:53:09.684Z,100471.97
2022-10-21T10:55:35.242Z,100480.28
2022-10-21T10:58:10.768Z,100476.72
2022-10-21T11:00:39.918Z,100480.59
2022-10-21T11:03:07.080Z,100478.66
2022-10-21T11:05:35.510Z,100477.84
2022-10-21T11:08:03.807Z,100475.88
2022-10-21T11:10:36.892Z,100475.88
2022-10-21T11:13:03.816Z,100477.03
2022-10-21T11:15:49.269Z,100469.53
2022-10-21T11:18:25.140Z,100462.03
2022-10-21T11:21:10.809Z,100464.81
2022-10-21T11:23:57.836Z,100457.63
2022-10-21T11:26:27.841Z,100468.72
2022-10-21T11:29:13.260Z,100456.81
2022-10-21T11:31:53.881Z,100453.75
2022-10-21T11:34:30.889Z,100463.19
2022-10-21T11:37:07.279Z,100451.28
2022-10-21T11:39:36.155Z,100450.16
2022-10-21T11:42:07.598Z,100455.69
2022-10-21T11:44:41.719Z,100456.81
2022-10-21T11:47:14.498Z,100459.59
2022-10-21T11:49:59.963Z,100458.75
2022-10-21T11:52:45.393Z,100456.81
2022-10-21T11:55:16.285Z,100458.75
2022-10-21T11:58:03.601Z,100452.09
2022-10-21T12:00:30.207Z,100444.91
2022-10-21T12:03:15.641Z,100442.13
2022-10-21T12:05:45.454Z,100436.91
2022-10-21T12:08:19.776Z,100442.13
2022-10-21T12:10:46.959Z,100443.78
2022-10-21T12:13:14.859Z,100430.25
2022-10-21T12:15:41.339Z,100429.41
2022-10-21T12:18:10.654Z,100427.47
2022-10-21T12:20:36.207Z,100433.81
2022-10-21T12:23:02.735Z,100436.59
2022-10-21T12:25:48.182Z,100431.06
2022-10-21T12:28:16.479Z,100431.06
2022-10-21T12:30:46.276Z,100433.81
2022-10-21T12:33:31.699Z,100424.69
2022-10-21T12:36:17.632Z,100425.84
2022-10-21T12:38:45.467Z,100419.97
2022-10-21T12:41:33.322Z,100416.72
2022-10-21T12:44:02.705Z,100414.75
2022-10-21T12:46:30.690Z,100426.66
2022-10-21T12:48:56.814Z,100421.44
2022-10-21T12:51:24.087Z,100414.75
2022-10-21T12:56:31.804Z,100421.13
2022-10-21T12:59:01.069Z,100411.19
2022-10-21T13:01:43.366Z,100417.53
2022-10-21T13:04:29.341Z,100416.72
2022-10-21T13:06:56.185Z,100420.31
2022-10-21T13:09:38.598Z,100430.56
2022-10-21T13:14:58.413Z,100429.75
2022-10-21T13:17:28.932Z,100432.50
2022-10-21T13:19:55.721Z,100426.97
2022-10-21T13:22:22.637Z,100429.75
2022-10-21T13:24:48.635Z,100429.75
2022-10-21T13:27:29.900Z,100431.38
2022-10-21T13:29:55.748Z,100431.38
2022-10-21T13:32:22.896Z,100425.00
2022-10-21T13:35:08.505Z,100424.19
2022-10-21T13:37:35.372Z,100427.78
2022-10-21T13:40:03.566Z,100421.44
2022-10-21T13:42:31.722Z,100421.44
2022-10-21T13:44:59.473Z,100422.84
2022-10-21T13:47:27.536Z,100423.06
2022-10-21T13:49:54.051Z,100429.13
2022-10-21T13:52:19.621Z,100424.69
2022-10-21T13:54:45.194Z,100416.41
2022-10-21T13:57:15.248Z,100410.84
2022-10-21T13:59:40.792Z,100417.22
2022-10-21T14:02:06.344Z,100418.88
2022-10-21T14:04:32.397Z,100416.13
2022-10-21T14:07:00.097Z,100418.06
2022-10-21T14:09:27.335Z,100416.94
2022-10-21T14:11:56.031Z,100403.91
2022-10-21T14:14:22.360Z,100408.63
2022-10-21T14:16:49.086Z,100413.03
2022-10-21T14:19:16.619Z,100411.06
2022-10-21T14:21:43.320Z,100414.66
2022-10-21T14:24:19.953Z,100412.72
2022-10-21T14:26:45.792Z,100412.72
2022-10-21T14:29:11.342Z,100415.47
2022-10-21T14:31:36.904Z,100419.91
2022-10-21T14:34:06.353Z,100419.06
2022-10-21T14:36:31.910Z,100427.38
2022-10-21T14:38:59.733Z,100425.44
2022-10-21T14:41:43.619Z,100419.91
2022-10-21T14:44:13.711Z,100425.13
2022-10-21T14:46:41.249Z,100416.00
2022-10-21T14:49:13.519Z,100421.53
2022-10-21T14:51:40.030Z,100414.06
2022-10-21T14:54:06.551Z,100424.31
2022-10-21T14:56:33.650Z,100419.59
2022-10-21T14:58:59.779Z,100430.66
2022-10-21T15:01:25.360Z,100425.13
2022-10-21T15:03:53.708Z,100429.03
2022-10-21T15:06:21.636Z,100431.81
2022-10-21T15:09:07.149Z,100432.63
2022-10-21T15:11:34.255Z,100434.56
2022-10-21T15:14:16.044Z,100434.56
2022-10-21T15:16:57.834Z,100425.44
2022-10-21T15:19:24.498Z,100420.72
2022-10-21T15:21:51.443Z,100417.97
2022-10-21T15:24:17.889Z,100417.97
2022-10-21T15:26:44.552Z,100423.50
2022-10-21T15:29:12.383Z,100407.16
2022-10-21T15:31:37.951Z,100408.84
2022-10-21T15:34:04.587Z,100403.31
2022-10-21T15:36:30.140Z,100415.19
2022-10-21T15:38:55.683Z,100414.38
2022-10-21T15:41:23.176Z,100425.44
2022-10-21T15:43:51.486Z,100418.25
2022-10-21T15:46:17.045Z,100422.69
2022-10-21T15:48:42.616Z,100425.44
2022-10-21T15:51:08.171Z,100425.44
2022-10-21T15:53:33.709Z,100423.78
2022-10-21T15:55:59.659Z,100426.56
2022-10-21T15:58:25.199Z,100422.69
2022-10-21T16:00:50.843Z,100421.00
2022-10-21T16:03:17.088Z,100418.25
2022-10-21T16:05:42.855Z,100421.00
2022-10-21T16:08:10.716Z,100421.00
2022-10-21T16:10:36.484Z,100422.16
2022-10-21T16:13:02.034Z,100426.56
2022-10-21T16:15:27.699Z,100436.81
2022-10-21T16:17:54.185Z,100430.47
2022-10-21T16:20:21.156Z,100438.75
2022-10-21T16:22:46.728Z,100437.63
2022-10-21T16:25:13.204Z,100436.81
2022-10-21T16:27:51.213Z,100435.19
2022-10-21T16:30:24.583Z,100438.75
2022-10-21T16:32:50.528Z,100442.34
2022-10-21T16:35:16.632Z,100441.53
2022-10-21T16:37:42.388Z,100438.75
2022-10-21T16:40:24.446Z,100441.53
2022-10-21T16:42:50.352Z,100437.13
2022-10-21T16:45:16.874Z,100436.31
2022-10-21T16:47:47.254Z,100439.91
2022-10-21T16:50:16.945Z,100439.06
2022-10-21T16:52:42.818Z,100444.63
2022-10-21T16:55:08.724Z,100451.78
2022-10-21T16:57:34.273Z,100443.47
2022-10-21T16:59:59.816Z,100445.44
2022-10-21T17:02:25.372Z,100453.75
2022-10-21T17:04:50.911Z,100452.91
2022-10-21T17:07:16.515Z,100461.22
2022-10-21T17:09:42.060Z,100456.50
2022-10-21T17:12:09.339Z,100460.41
2022-10-21T17:17:05.412Z,100474.25
2022-10-21T17:19:30.952Z,100476.19
2022-10-21T17:21:56.511Z,100473.13
2022-10-21T17:24:22.059Z,100475.06
2022-10-21T17:26:47.612Z,100484.50
2022-10-21T17:29:13.150Z,100479.78
2022-10-21T17:31:39.616Z,100481.75
2022-10-21T17:34:06.680Z,100488.09
2022-10-21T17:36:32.769Z,100480.88
2022-10-21T17:38:58.300Z,100481.75
2022-10-21T17:41:23.849Z,100495.59
2022-10-21T17:43:49.391Z,100488.09
2022-10-21T17:46:16.568Z,100502.22
2022-10-21T17:48:42.107Z,100505.00
2022-10-21T17:51:07.916Z,100507.75
2022-10-21T17:53:33.456Z,100509.44
2022-10-21T17:55:59.578Z,100510.53
2022-10-21T17:58:25.321Z,100512.47
2022-10-21T18:00:50.928Z,100522.41
2022-10-21T18:03:17.434Z,100525.50
2022-10-21T18:05:44.500Z,100521.59
2022-10-21T18:08:10.045Z,100522.41
2022-10-21T18:10:35.588Z,100528.28
2022-10-21T18:13:01.141Z,100525.19
2022-10-21T18:15:27.496Z,100526.31
2022-10-21T18:17:53.381Z,100520.78
2022-10-21T18:20:18.988Z,100525.19
2022-10-21T18:22:44.808Z,100519.16
2022-10-21T18:25:10.386Z,100520.78
2022-10-21T18:27:35.977Z,100524.69
2022-10-21T18:30:03.892Z,100528.28
2022-10-21T18:32:29.457Z,100527.44
2022-10-21T18:34:54.995Z,100528.28
2022-10-21T18:37:20.545Z,100531.03
2022-10-21T18:39:46.104Z,100531.84
2022-10-21T18:42:11.652Z,100527.44
2022-10-21T18:44:37.371Z,100538.53
2022-10-21T18:47:02.920Z,100536.88
2022-10-21T18:49:28.487Z,100539.66
2022-10-21T18:51:54.465Z,100535.75
2022-10-21T18:54:20.056Z,100542.44
2022-10-21T18:56:45.599Z,100544.06
2022-10-21T18:59:11.632Z,100546.00
2022-10-21T19:01:37.254Z,100536.88
2022-10-21T19:04:02.939Z,100545.19
2022-10-21T19:06:31.144Z,100545.19
2022-10-21T19:08:56.814Z,100543.25
2022-10-21T19:11:22.408Z,100548.78
2022-10-21T19:13:47.956Z,100540.75
2022-10-21T19:16:13.558Z,100543.53
2022-10-21T19:18:39.124Z,100535.22
2022-10-21T19:21:04.850Z,100532.47
2022-10-21T19:23:31.619Z,100523.34
2022-10-21T19:26:01.300Z,100513.06
2022-10-21T19:28:26.847Z,100513.94
2022-10-21T19:30:52.406Z,100509.50
2022-10-21T19:33:17.953Z,100514.22
2022-10-21T19:35:43.514Z,100511.44
2022-10-21T19:38:15.498Z,100513.06
2022-10-21T19:40:46.306Z,100515.03
2022-10-21T19:43:11.873Z,100523.34
2022-10-21T19:45:37.416Z,100526.09
2022-10-21T19:48:03.004Z,100530.81
2022-10-21T19:50:28.636Z,100533.59
2022-10-21T19:52:54.318Z,100539.94
2022-10-21T19:55:19.862Z,100548.25
2022-10-21T19:57:45.472Z,100543.84
2022-10-21T20:00:11.319Z,100556.56
2022-10-21T20:02:37.207Z,100550.19
2022-10-21T20:05:02.904Z,100554.91
2022-10-21T20:07:28.452Z,100566.81
2022-10-21T20:09:53.989Z,100566.81
2022-10-21T20:12:19.852Z,100570.72
2022-10-21T20:14:45.399Z,100566.00
2022-10-21T20:17:12.341Z,100577.88
2022-10-21T20:19:40.476Z,100567.94
2022-10-21T20:22:06.034Z,100577.06
2022-10-21T20:24:31.563Z,100576.25
2022-10-21T20:26:59.791Z,100572.66
2022-10-21T20:29:27.667Z,100584.56
2022-10-21T20:31:53.217Z,100580.97
2022-10-21T20:34:18.760Z,100580.97
2022-10-21T20:36:44.312Z,100583.72
2022-10-21T20:39:09.848Z,100583.72
2022-10-21T20:41:36.506Z,100592.03
2022-10-21T20:44:03.462Z,100590.09
2022-10-21T20:46:33.928Z,100591.22
2022-10-21T20:48:59.563Z,100592.03
2022-10-21T20:51:26.047Z,100592.03
2022-10-21T20:53:52.345Z,100596.75
2022-10-21T20:56:18.407Z,100599.53
2022-10-21T20:58:43.946Z,100588.44
2022-10-21T21:01:11.334Z,100589.59
2022-10-21T21:03:38.445Z,100604.25
2022-10-21T21:06:04.471Z,100603.44
2022-10-21T21:08:32.053Z,100598.72
2022-10-21T21:10:59.256Z,100595.94
2022-10-21T21:13:24.795Z,100590.41
2022-10-21T21:15:50.350Z,100595.94
2022-10-21T21:18:15.889Z,100587.63
2022-10-21T21:20:41.441Z,100591.22
2022-10-21T21:23:06.996Z,100590.41
2022-10-21T21:25:32.539Z,100600.66
2022-10-21T21:27:58.096Z,100595.13
2022-10-21T21:30:23.640Z,100585.97
2022-10-21T21:32:49.196Z,100586.81
2022-10-21T21:35:14.733Z,100580.44
2022-10-21T21:37:40.286Z,100590.41
2022-10-21T21:40:06.183Z,100586.81
2022-10-21T21:42:31.816Z,100583.19
2022-10-21T21:44:57.351Z,100578.50
2022-10-21T21:47:22.896Z,100578.50
2022-10-21T21:49:48.442Z,100580.44
2022-10-21T21:52:14.171Z,100577.66
2022-10-21T21:54:39.710Z,100580.44
2022-10-21T21:59:50.777Z,100576.03
2022-10-21T22:02:16.327Z,100572.13
2022-10-21T22:04:41.885Z,100576.03
2022-10-21T22:07:07.435Z,100573.25
2022-10-21T22:09:32.979Z,100568.53
2022-10-21T22:11:58.536Z,100567.72
2022-10-21T22:14:24.083Z,100576.84
2022-10-21T22:16:49.643Z,100585.16
2022-10-21T22:19:15.186Z,100574.88
2022-10-21T22:21:40.770Z,100574.88
2022-10-21T22:24:06.308Z,100569.66
2022-10-21T22:26:31.856Z,100570.47
2022-10-21T22:28:57.480Z,100566.91
2022-10-21T22:31:28.916Z,100560.53
2022-10-21T22:33:56.309Z,100564.13
2022-10-21T22:36:21.864Z,100574.88
2022-10-21T22:38:47.405Z,100564.94
2022-10-21T22:41:13.219Z,100566.91
2022-10-21T22:43:38.800Z,100574.06
2022-10-21T22:48:49.975Z,100574.38
2022-10-21T22:51:15.839Z,100582.69
2022-10-21T22:53:41.662Z,100579.91
2022-10-21T22:56:07.412Z,100579.09
2022-10-21T22:58:32.959Z,100575.19
2022-10-21T23:00:58.660Z,100583.50
2022-10-21T23:03:24.228Z,100581.88
2022-10-21T23:05:49.772Z,100592.94
2022-10-21T23:08:16.174Z,100591.81
2022-10-21T23:10:41.739Z,100592.94
2022-10-21T23:13:07.284Z,100581.06
2022-10-21T23:15:33.249Z,100581.88
2022-10-21T23:17:58.803Z,100572.44
2022-10-21T23:20:24.347Z,100576.34
2022-10-21T23:22:49.912Z,100577.97
2022-10-21T23:25:15.581Z,100574.38
2022-10-21T23:27:41.140Z,100590.19
2022-10-21T23:30:06.875Z,100592.94
2022-10-21T23:32:32.428Z,100599.31
2022-10-21T23:34:57.971Z,100593.75
2022-10-21T23:37:23.555Z,100610.38
2022-10-21T23:39:49.094Z,100611.50
2022-10-21T23:42:14.651Z,100608.72
2022-10-21T23:44:40.193Z,100609.56
2022-10-21T23:47:05.751Z,100609.56
2022-10-21T23:49:31.295Z,100619.00
2022-10-21T23:51:57.581Z,100617.03
2022-10-21T23:54:23.398Z,100614.28
2022-10-21T23:56:48.951Z,100622.56
2022-10-21T23:59:14.497Z,100620.63
